createdAt,value
2022-11-04T00:00:15.087Z,98886.41
2022-11-04T00:02:43.320Z,98886.13
2022-11-04T00:05:11.981Z,98898.59
2022-11-04T00:08:11.631Z,98906.94
2022-11-04T00:10:53.330Z,98904.97
2022-11-04T00:13:21.403Z,98893.91
2022-11-04T00:16:07.842Z,98892.13
2022-11-04T00:18:36.916Z,98898.69
2022-11-04T00:21:22.868Z,98903.63
2022-11-04T00:24:08.328Z,98902.00
2022-11-04T00:26:53.457Z,98890.22
2022-11-04T00:29:21.064Z,98885.00
2022-11-04T00:32:07.571Z,98888.56
2022-11-04T00:34:38.049Z,98884.91
2022-11-04T00:37:06.804Z,98884.06
2022-11-04T00:39:35.435Z,98874.22
2022-11-04T00:42:03.610Z,98879.81
2022-11-04T00:44:31.426Z,98886.53
2022-11-04T00:47:00.793Z,98880.09
2022-11-04T00:49:28.296Z,98886.41
2022-11-04T00:51:57.313Z,98890.78
2022-11-04T00:54:24.936Z,98903.50
2022-11-04T00:56:53.964Z,98900.34
2022-11-04T00:59:21.675Z,98901.81
2022-11-04T01:01:49.957Z,98904.56
2022-11-04T01:04:37.254Z,98911.56
2022-11-04T01:07:05.107Z,98934.13
2022-11-04T01:09:33.193Z,98929.09
2022-11-04T01:12:01.057Z,98919.22
2022-11-04T01:14:28.925Z,98925.97
2022-11-04T01:16:57.323Z,98922.66
2022-11-04T01:19:25.230Z,98934.56
2022-11-04T01:21:55.299Z,98953.22
2022-11-04T01:24:22.903Z,98960.03
2022-11-04T01:26:50.764Z,98959.91
2022-11-04T01:29:18.516Z,98966.22
2022-11-04T01:31:46.334Z,98966.91
2022-11-04T01:34:14.149Z,98967.72
2022-11-04T01:36:41.782Z,98963.63
2022-11-04T01:39:10.945Z,98966.59
2022-11-04T01:41:38.789Z,98962.22
2022-11-04T01:44:21.538Z,98966.88
2022-11-04T01:46:51.191Z,98978.66
2022-11-04T01:49:27.446Z,98989.06
2022-11-04T01:51:57.837Z,98973.19
2022-11-04T01:54:27.658Z,98983.03
2022-11-04T01:56:56.221Z,98982.88
2022-11-04T01:59:29.034Z,98984.25
2022-11-04T02:01:57.000Z,98982.22
2022-11-04T02:04:27.315Z,98978.63
2022-11-04T02:06:55.908Z,98985.16
2022-11-04T02:09:25.143Z,98982.72
2022-11-04T02:12:11.783Z,98988.19
2022-11-04T02:14:40.110Z,98990.13
2022-11-04T02:17:14.791Z,98998.47
2022-11-04T02:19:56.331Z,98998.88
2022-11-04T02:22:44.475Z,98993.94
2022-11-04T02:25:30.477Z,98993.91
2022-11-04T02:28:06.777Z,98993.91
2022-11-04T02:30:37.106Z,99001.25
2022-11-04T02:33:12.812Z,99001.31
2022-11-04T02:35:44.150Z,99007.13
2022-11-04T02:38:14.549Z,98998.03
2022-11-04T02:40:44.311Z,99010.66
2022-11-04T02:43:17.421Z,99009.31
2022-11-04T02:45:48.562Z,99017.25
2022-11-04T02:48:22.142Z,99022.97
2022-11-04T02:50:53.104Z,99029.09
2022-11-04T02:53:24.013Z,99028.66
2022-11-04T02:55:53.698Z,99034.34
2022-11-04T02:58:24.030Z,99036.47
2022-11-04T03:00:54.330Z,99049.69
2022-11-04T03:03:26.808Z,99039.94
2022-11-04T03:05:56.119Z,99030.06
2022-11-04T03:08:29.102Z,99034.22
2022-11-04T03:11:00.423Z,99023.91
2022-11-04T03:13:32.917Z,99025.50
2022-11-04T03:16:05.365Z,99027.94
2022-11-04T03:18:36.513Z,99033.72
2022-11-04T03:21:06.394Z,99029.94
2022-11-04T03:23:34.447Z,99030.13
2022-11-04T03:26:04.861Z,99055.41
2022-11-04T03:28:37.694Z,99061.41
2022-11-04T03:31:10.369Z,99059.34
2022-11-04T03:33:42.156Z,99060.53
2022-11-04T03:36:10.114Z,99072.72
2022-11-04T03:38:38.365Z,99075.63
2022-11-04T03:41:08.576Z,99077.00
2022-11-04T03:43:36.943Z,99078.00
2022-11-04T03:46:04.978Z,99095.81
2022-11-04T03:48:34.378Z,99096.44
2022-11-04T03:51:02.315Z,99090.16
2022-11-04T03:53:31.494Z,99086.38
2022-11-04T03:56:06.111Z,99080.97
2022-11-04T03:58:39.328Z,99086.41
2022-11-04T04:01:12.630Z,99090.47
2022-11-04T04:03:43.897Z,99091.13
2022-11-04T04:06:16.477Z,99086.63
2022-11-04T04:08:46.469Z,99080.53
2022-11-04T04:11:20.178Z,99075.72
2022-11-04T04:13:53.301Z,99072.19
2022-11-04T04:16:26.224Z,99061.00
2022-11-04T04:18:58.882Z,99049.03
2022-11-04T04:21:29.809Z,99042.56
2022-11-04T04:24:16.888Z,99051.50
2022-11-04T04:27:03.905Z,99061.69
2022-11-04T04:29:32.041Z,99065.66
2022-11-04T04:32:00.940Z,99061.69
2022-11-04T04:34:31.958Z,99063.69
2022-11-04T04:37:02.241Z,99058.69
2022-11-04T04:39:52.506Z,99054.44
2022-11-04T04:42:39.893Z,99052.94
2022-11-04T04:45:09.735Z,99052.44
2022-11-04T04:47:41.140Z,99052.00
2022-11-04T04:50:11.027Z,99036.78
2022-11-04T04:52:39.922Z,99034.19
2022-11-04T04:55:08.393Z,99031.72
2022-11-04T04:57:36.434Z,99029.47
2022-11-04T05:00:04.871Z,99042.31
2022-11-04T05:02:32.731Z,99037.97
2022-11-04T05:05:01.397Z,99039.03
2022-11-04T05:07:31.127Z,99043.53
2022-11-04T05:09:58.841Z,99041.50
2022-11-04T05:12:26.839Z,99049.41
2022-11-04T05:14:54.812Z,99046.22
2022-11-04T05:17:23.144Z,99038.09
2022-11-04T05:19:50.953Z,99049.16
2022-11-04T05:22:18.958Z,99057.41
2022-11-04T05:24:48.175Z,99052.34
2022-11-04T05:27:16.388Z,99056.00
2022-11-04T05:29:44.549Z,99060.72
2022-11-04T05:32:12.684Z,99063.31
2022-11-04T05:34:40.572Z,99061.66
2022-11-04T05:37:08.761Z,99065.53
2022-11-04T05:39:36.621Z,99054.09
2022-11-04T05:42:06.389Z,99054.94
2022-11-04T05:44:34.052Z,99057.19
2022-11-04T05:47:03.971Z,99054.59
2022-11-04T05:49:31.809Z,99046.91
2022-11-04T05:51:59.975Z,99048.78
2022-11-04T05:54:28.003Z,99055.53
2022-11-04T05:56:56.000Z,99064.19
2022-11-04T05:59:25.360Z,99060.38
2022-11-04T06:01:53.368Z,99057.81
2022-11-04T06:04:21.435Z,99056.97
2022-11-04T06:06:49.221Z,99050.53
2022-11-04T06:09:16.909Z,99046.16
2022-11-04T06:11:45.343Z,99046.88
2022-11-04T06:14:18.376Z,99056.31
2022-11-04T06:16:48.168Z,99052.31
2022-11-04T06:19:16.419Z,99051.97
2022-11-04T06:21:44.158Z,99055.56
2022-11-04T06:24:11.904Z,99059.88
2022-11-04T06:26:40.267Z,99067.06
2022-11-04T06:29:08.051Z,99064.84
2022-11-04T06:31:35.715Z,99077.03
2022-11-04T06:34:05.066Z,99078.09
2022-11-04T06:36:33.823Z,99088.91
2022-11-04T06:39:04.855Z,99089.00
2022-11-04T06:41:33.080Z,99099.31
2022-11-04T06:44:01.819Z,99110.56
2022-11-04T06:46:32.658Z,99104.59
2022-11-04T06:49:00.371Z,99096.06
2022-11-04T06:51:29.608Z,99096.31
2022-11-04T06:53:58.849Z,99104.22
2022-11-04T06:56:27.053Z,99101.44
2022-11-04T06:58:55.419Z,99103.88
2022-11-04T07:01:24.578Z,99100.03
2022-11-04T07:03:53.275Z,99102.78
2022-11-04T07:06:22.332Z,99107.47
2022-11-04T07:08:52.702Z,99112.28
2022-11-04T07:11:22.855Z,99106.03
2022-11-04T07:13:50.587Z,99117.59
2022-11-04T07:16:18.871Z,99110.50
2022-11-04T07:18:46.753Z,99108.84
2022-11-04T07:21:14.280Z,99116.53
2022-11-04T07:23:41.922Z,99121.69
2022-11-04T07:26:13.728Z,99123.38
2022-11-04T07:28:42.595Z,99131.88
2022-11-04T07:31:12.907Z,99134.72
2022-11-04T07:33:40.861Z,99138.03
2022-11-04T07:36:09.690Z,99150.81
2022-11-04T07:38:37.458Z,99157.22
2022-11-04T07:41:05.270Z,99157.59
2022-11-04T07:43:34.904Z,99160.59
2022-11-04T07:46:05.258Z,99164.00
2022-11-04T07:48:33.490Z,99160.00
2022-11-04T07:51:02.691Z,99160.69
2022-11-04T07:53:32.265Z,99159.09
2022-11-04T07:56:00.642Z,99151.63
2022-11-04T07:58:30.570Z,99161.50
2022-11-04T08:01:03.617Z,99162.81
2022-11-04T08:03:31.912Z,99154.31
2022-11-04T08:06:01.013Z,99158.59
2022-11-04T08:08:29.822Z,99165.31
2022-11-04T08:11:01.322Z,99153.25
2022-11-04T08:13:30.815Z,99149.84
2022-11-04T08:15:59.001Z,99147.50
2022-11-04T08:18:28.461Z,99149.41
2022-11-04T08:20:56.550Z,99153.28
2022-11-04T08:23:24.369Z,99152.66
2022-11-04T08:25:52.324Z,99138.91
2022-11-04T08:28:20.390Z,99134.81
2022-11-04T08:30:55.588Z,99139.88
2022-11-04T08:33:24.710Z,99147.78
2022-11-04T08:35:54.272Z,99142.84
2022-11-04T08:38:22.277Z,99135.94
2022-11-04T08:40:53.411Z,99138.13
2022-11-04T08:43:26.034Z,99140.59
2022-11-04T08:45:54.305Z,99137.53
2022-11-04T08:48:21.962Z,99143.84
2022-11-04T08:50:50.174Z,99137.88
2022-11-04T08:53:20.486Z,99148.88
2022-11-04T08:56:08.491Z,99153.13
2022-11-04T08:58:36.265Z,99152.91
2022-11-04T09:01:04.194Z,99162.88
2022-11-04T09:03:32.746Z,99157.22
2022-11-04T09:06:00.368Z,99159.00
2022-11-04T09:08:29.304Z,99159.00
2022-11-04T09:10:57.306Z,99162.03
2022-11-04T09:13:25.554Z,99167.56
2022-11-04T09:15:53.297Z,99177.31
2022-11-04T09:18:20.905Z,99168.56
2022-11-04T09:20:48.539Z,99176.25
2022-11-04T09:23:16.213Z,99175.81
2022-11-04T09:25:46.348Z,99171.69
2022-11-04T09:28:15.208Z,99179.97
2022-11-04T09:30:42.789Z,99184.66
2022-11-04T09:33:10.958Z,99187.41
2022-11-04T09:35:38.816Z,99185.47
2022-11-04T09:38:06.360Z,99191.53
2022-11-04T09:40:36.531Z,99186.56
2022-11-04T09:43:15.353Z,99186.88
2022-11-04T09:45:44.088Z,99197.53
2022-11-04T09:48:15.002Z,99199.69
2022-11-04T09:50:46.317Z,99193.91
2022-11-04T09:53:17.801Z,99196.16
2022-11-04T09:55:50.978Z,99198.78
2022-11-04T09:58:20.218Z,99206.81
2022-11-04T10:00:51.620Z,99207.00
2022-11-04T10:03:25.156Z,99209.53
2022-11-04T10:05:57.781Z,99203.00
2022-11-04T10:08:37.575Z,99209.16
2022-11-04T10:11:08.782Z,99219.09
2022-11-04T10:13:44.310Z,99216.88
2022-11-04T10:16:21.126Z,99217.47
2022-11-04T10:18:59.048Z,99218.72
2022-11-04T10:21:33.575Z,99209.84
2022-11-04T10:24:09.217Z,99211.81
2022-11-04T10:26:44.111Z,99212.78
2022-11-04T10:29:15.608Z,99206.63
2022-11-04T10:31:44.649Z,99208.84
2022-11-04T10:34:19.306Z,99200.25
2022-11-04T10:36:48.430Z,99199.56
2022-11-04T10:39:24.471Z,99194.94
2022-11-04T10:41:52.448Z,99189.72
2022-11-04T10:44:24.040Z,99183.34
2022-11-04T10:46:56.519Z,99181.44
2022-11-04T10:49:38.116Z,99186.81
2022-11-04T10:52:07.260Z,99188.59
2022-11-04T10:54:42.356Z,99183.59
2022-11-04T10:57:12.051Z,99175.13
2022-11-04T10:59:48.402Z,99178.56
2022-11-04T11:02:16.668Z,99173.56
2022-11-04T11:04:47.616Z,99171.66
2022-11-04T11:07:19.474Z,99167.44
2022-11-04T11:09:54.074Z,99166.81
2022-11-04T11:12:49.918Z,99172.91
2022-11-04T11:15:29.938Z,99166.75
2022-11-04T11:18:01.076Z,99171.81
2022-11-04T11:20:28.829Z,99168.09
2022-11-04T11:23:01.911Z,99167.41
2022-11-04T11:25:34.132Z,99169.13
2022-11-04T11:28:03.195Z,99176.84
2022-11-04T11:30:34.571Z,99181.19
2022-11-04T11:33:04.983Z,99183.66
2022-11-04T11:35:35.117Z,99185.34
2022-11-04T11:38:06.172Z,99177.28
2022-11-04T11:40:47.458Z,99176.94
2022-11-04T11:43:26.994Z,99174.75
2022-11-04T11:46:00.976Z,99174.44
2022-11-04T11:48:30.101Z,99169.28
2022-11-04T11:50:59.988Z,99166.09
2022-11-04T11:53:30.101Z,99168.91
2022-11-04T11:56:04.130Z,99168.94
2022-11-04T12:01:28.148Z,99165.25
2022-11-04T12:09:40.077Z,99155.22
2022-11-04T12:12:24.583Z,99154.22
2022-11-04T12:14:59.405Z,99146.88
2022-11-04T12:17:39.097Z,99156.91
2022-11-04T12:20:16.966Z,99146.69
2022-11-04T12:22:48.899Z,99143.81
2022-11-04T12:25:21.273Z,99143.38
2022-11-04T12:27:53.593Z,99146.84
2022-11-04T12:30:30.968Z,99144.19
2022-11-04T12:33:15.300Z,99134.28
2022-11-04T12:35:52.382Z,99131.13
2022-11-04T12:38:28.733Z,99138.59
2022-11-04T12:41:37.655Z,99143.97
2022-11-04T12:44:01.207Z,99137.13
2022-11-04T12:46:34.579Z,99155.00
2022-11-04T12:49:19.396Z,99153.72
2022-11-04T12:51:53.610Z,99152.09
2022-11-04T12:54:38.295Z,99150.97
2022-11-04T12:57:12.449Z,99155.00
2022-11-04T12:59:55.886Z,99149.78
2022-11-04T13:02:26.000Z,99153.38
2022-11-04T13:04:59.586Z,99154.75
2022-11-04T13:07:32.231Z,99161.97
2022-11-04T13:10:01.763Z,99161.06
2022-11-04T13:12:32.900Z,99172.75
2022-11-04T13:15:02.669Z,99171.47
2022-11-04T13:17:32.482Z,99188.53
2022-11-04T13:20:02.638Z,99182.94
2022-11-04T13:22:33.165Z,99190.00
2022-11-04T13:25:04.535Z,99183.41
2022-11-04T13:27:34.288Z,99194.09
2022-11-04T13:30:05.369Z,99190.63
2022-11-04T13:32:36.802Z,99193.84
2022-11-04T13:35:10.704Z,99190.09
2022-11-04T13:37:44.025Z,99192.53
2022-11-04T13:40:15.331Z,99200.00
2022-11-04T13:42:55.384Z,99203.25
2022-11-04T13:45:25.012Z,99210.47
2022-11-04T13:47:55.177Z,99203.50
2022-11-04T13:50:30.002Z,99208.28
2022-11-04T13:52:59.528Z,99206.59
2022-11-04T13:55:27.834Z,99212.38
2022-11-04T13:57:57.157Z,99215.28
2022-11-04T14:00:25.980Z,99223.00
2022-11-04T14:02:54.644Z,99230.13
2022-11-04T14:05:53.802Z,99226.91
2022-11-04T14:08:22.910Z,99232.53
2022-11-04T14:11:14.498Z,99236.66
2022-11-04T14:13:46.510Z,99237.97
2022-11-04T14:16:34.325Z,99241.25
2022-11-04T14:19:23.649Z,99242.91
2022-11-04T14:22:06.391Z,99247.16
2022-11-04T14:24:35.625Z,99243.41
2022-11-04T14:27:03.581Z,99252.41
2022-11-04T14:29:32.670Z,99251.09
2022-11-04T14:32:01.131Z,99246.06
2022-11-04T14:34:30.300Z,99252.28
2022-11-04T14:36:59.187Z,99251.44
2022-11-04T14:39:31.240Z,99251.44
2022-11-04T14:42:01.788Z,99247.47
2022-11-04T14:44:35.361Z,99252.22
2022-11-04T14:47:08.606Z,99253.59
2022-11-04T14:49:41.409Z,99261.59
2022-11-04T14:52:16.324Z,99255.53
2022-11-04T14:54:44.580Z,99257.03
2022-11-04T14:57:17.860Z,99264.63
2022-11-04T14:59:45.996Z,99255.28
2022-11-04T15:02:17.450Z,99259.41
2022-11-04T15:04:48.675Z,99266.53
2022-11-04T15:07:24.819Z,99264.22
2022-11-04T15:09:52.939Z,99266.78
2022-11-04T15:12:39.462Z,99272.63
2022-11-04T15:15:25.592Z,99273.75
2022-11-04T15:17:53.551Z,99273.56
2022-11-04T15:20:24.570Z,99271.00
2022-11-04T15:22:52.749Z,99273.72
2022-11-04T15:25:20.733Z,99276.09
2022-11-04T15:27:50.349Z,99287.91
2022-11-04T15:30:21.573Z,99287.94
2022-11-04T15:32:56.352Z,99287.06
2022-11-04T15:35:24.882Z,99286.91
2022-11-04T15:37:54.177Z,99282.47
2022-11-04T15:40:23.227Z,99277.94
2022-11-04T15:42:53.113Z,99282.31
2022-11-04T15:45:31.897Z,99286.16
2022-11-04T15:48:18.137Z,99286.72
2022-11-04T15:50:46.359Z,99290.31
2022-11-04T15:53:16.628Z,99293.34
2022-11-04T15:55:44.668Z,99301.94
2022-11-04T15:58:15.305Z,99307.28
2022-11-04T16:00:44.151Z,99312.75
2022-11-04T16:03:18.695Z,99312.06
2022-11-04T16:06:00.837Z,99315.91
2022-11-04T16:08:29.768Z,99320.97
2022-11-04T16:11:12.608Z,99316.38
2022-11-04T16:13:42.031Z,99323.81
2022-11-04T16:16:18.030Z,99325.03
2022-11-04T16:18:50.027Z,99330.84
2022-11-04T16:21:23.238Z,99337.19
2022-11-04T16:23:52.500Z,99329.88
2022-11-04T16:26:25.666Z,99329.44
2022-11-04T16:28:56.223Z,99334.75
2022-11-04T16:31:25.839Z,99339.72
2022-11-04T16:33:53.808Z,99341.22
2022-11-04T16:36:24.800Z,99350.00
2022-11-04T16:38:57.163Z,99346.44
2022-11-04T16:41:25.715Z,99348.78
2022-11-04T16:43:55.332Z,99346.97
2022-11-04T16:46:25.788Z,99358.94
2022-11-04T16:48:53.761Z,99353.28
2022-11-04T16:51:22.202Z,99367.03
2022-11-04T16:53:50.917Z,99372.13
2022-11-04T16:56:19.239Z,99378.22
2022-11-04T16:58:47.111Z,99378.63
2022-11-04T17:01:16.567Z,99371.25
2022-11-04T17:03:44.926Z,99370.94
2022-11-04T17:06:15.012Z,99371.78
2022-11-04T17:08:43.571Z,99372.19
2022-11-04T17:11:11.850Z,99369.66
2022-11-04T17:13:40.381Z,99375.88
2022-11-04T17:16:09.155Z,99381.66
2022-11-04T17:18:38.443Z,99383.13
2022-11-04T17:21:07.375Z,99387.75
2022-11-04T17:23:38.132Z,99392.13
2022-11-04T17:26:06.416Z,99394.31
2022-11-04T17:28:34.241Z,99395.38
2022-11-04T17:31:03.346Z,99403.06
2022-11-04T17:33:31.200Z,99399.44
2022-11-04T17:36:06.313Z,99413.56
2022-11-04T17:38:35.623Z,99412.38
2022-11-04T17:41:21.344Z,99413.91
2022-11-04T17:44:01.013Z,99421.53
2022-11-04T17:46:35.272Z,99421.09
2022-11-04T17:49:04.089Z,99428.84
2022-11-04T17:51:33.392Z,99428.69
2022-11-04T17:54:01.364Z,99428.09
2022-11-04T17:56:29.500Z,99437.53
2022-11-04T17:59:02.262Z,99432.47
2022-11-04T18:01:30.210Z,99438.50
2022-11-04T18:03:58.231Z,99437.75
2022-11-04T18:06:26.977Z,99445.72
2022-11-04T18:08:57.462Z,99451.94
2022-11-04T18:11:43.392Z,99461.31
2022-11-04T18:14:16.692Z,99460.06
2022-11-04T18:16:46.684Z,99464.53
2022-11-04T18:19:15.557Z,99464.75
2022-11-04T18:21:43.350Z,99472.09
2022-11-04T18:24:13.551Z,99479.53
2022-11-04T18:26:42.005Z,99476.41
2022-11-04T18:29:11.299Z,99483.34
2022-11-04T18:31:44.617Z,99477.22
2022-11-04T18:34:17.951Z,99465.84
2022-11-04T18:36:46.384Z,99474.56
2022-11-04T18:39:16.600Z,99482.34
2022-11-04T18:41:48.083Z,99476.41
2022-11-04T18:44:19.746Z,99477.78
2022-11-04T18:46:47.678Z,99480.78
2022-11-04T18:49:15.694Z,99483.03
2022-11-04T18:51:43.854Z,99500.91
2022-11-04T18:54:12.357Z,99492.13
2022-11-04T18:56:44.233Z,99500.06
2022-11-04T18:59:12.952Z,99496.50
2022-11-04T19:01:41.500Z,99494.97
2022-11-04T19:04:10.330Z,99505.03
2022-11-04T19:06:41.546Z,99503.63
2022-11-04T19:09:32.507Z,99506.97
2022-11-04T19:12:13.974Z,99508.16
2022-11-04T19:14:41.746Z,99510.31
2022-11-04T19:17:09.665Z,99511.41
2022-11-04T19:19:37.370Z,99518.22
2022-11-04T19:22:05.298Z,99515.28
2022-11-04T19:24:33.068Z,99512.78
2022-11-04T19:27:02.089Z,99516.47
2022-11-04T19:29:30.023Z,99519.47
2022-11-04T19:31:57.918Z,99518.28
2022-11-04T19:34:26.951Z,99522.66
2022-11-04T19:36:54.748Z,99523.13
2022-11-04T19:39:22.466Z,99528.44
2022-11-04T19:42:07.631Z,99529.66
2022-11-04T19:44:36.656Z,99533.16
2022-11-04T19:47:04.708Z,99537.88
2022-11-04T19:49:32.646Z,99543.81
2022-11-04T19:52:01.217Z,99549.63
2022-11-04T19:54:29.377Z,99558.03
2022-11-04T19:56:58.329Z,99549.25
2022-11-04T19:59:25.936Z,99557.66
2022-11-04T20:01:55.183Z,99554.81
2022-11-04T20:04:23.021Z,99562.63
2022-11-04T20:06:50.728Z,99570.47
2022-11-04T20:09:18.616Z,99569.28
2022-11-04T20:12:03.903Z,99567.44
2022-11-04T20:14:34.057Z,99564.13
2022-11-04T20:17:03.723Z,99571.19
2022-11-04T20:19:31.375Z,99568.22
2022-11-04T20:21:59.179Z,99575.88
2022-11-04T20:24:27.017Z,99581.66
2022-11-04T20:26:56.380Z,99580.75
2022-11-04T20:29:24.442Z,99597.53
2022-11-04T20:31:52.407Z,99600.63
2022-11-04T20:34:21.575Z,99593.97
2022-11-04T20:36:50.222Z,99597.47
2022-11-04T20:39:19.250Z,99590.69
2022-11-04T20:41:47.003Z,99609.84
2022-11-04T20:44:17.758Z,99613.13
2022-11-04T20:46:45.745Z,99617.38
2022-11-04T20:49:13.585Z,99624.72
2022-11-04T20:51:48.826Z,99621.69
2022-11-04T20:54:18.463Z,99630.94
2022-11-04T20:56:46.681Z,99636.50
2022-11-04T20:59:15.371Z,99638.63
2022-11-04T21:01:44.388Z,99639.34
2022-11-04T21:04:15.000Z,99640.16
2022-11-04T21:06:44.034Z,99644.59
2022-11-04T21:09:12.938Z,99642.31
2022-11-04T21:11:41.171Z,99643.66
2022-11-04T21:14:09.669Z,99653.00
2022-11-04T21:16:38.046Z,99654.56
2022-11-04T21:19:05.727Z,99662.81
2022-11-04T21:21:34.283Z,99662.41
2022-11-04T21:24:04.876Z,99670.75
2022-11-04T21:26:34.022Z,99660.38
2022-11-04T21:29:03.049Z,99669.84
2022-11-04T21:31:32.282Z,99667.69
2022-11-04T21:34:00.751Z,99667.78
2022-11-04T21:36:29.043Z,99667.56
2022-11-04T21:38:56.879Z,99673.06
2022-11-04T21:41:26.934Z,99674.31
2022-11-04T21:43:55.104Z,99678.47
2022-11-04T21:46:24.233Z,99680.66
2022-11-04T21:48:52.105Z,99678.69
2022-11-04T21:51:20.561Z,99675.88
2022-11-04T21:53:48.658Z,99683.19
2022-11-04T21:56:17.586Z,99681.59
2022-11-04T21:58:47.135Z,99687.31
2022-11-04T22:01:16.096Z,99693.50
2022-11-04T22:03:44.416Z,99708.97
2022-11-04T22:06:12.870Z,99708.97
2022-11-04T22:08:44.065Z,99708.03
2022-11-04T22:11:13.195Z,99719.13
2022-11-04T22:13:40.913Z,99722.94
2022-11-04T22:16:14.244Z,99726.84
2022-11-04T22:18:42.115Z,99720.34
2022-11-04T22:21:13.180Z,99718.94
2022-11-04T22:23:41.577Z,99728.41
2022-11-04T22:26:11.342Z,99723.69
2022-11-04T22:28:39.084Z,99720.84
2022-11-04T22:31:07.551Z,99721.66
2022-11-04T22:33:37.840Z,99727.09
2022-11-04T22:36:06.339Z,99738.56
2022-11-04T22:38:34.056Z,99725.03
2022-11-04T22:41:02.506Z,99733.06
2022-11-04T22:43:30.515Z,99735.25
2022-11-04T22:45:58.616Z,99729.59
2022-11-04T22:48:26.298Z,99735.72
2022-11-04T22:51:00.365Z,99730.50
2022-11-04T22:53:28.438Z,99733.22
2022-11-04T22:55:59.248Z,99743.03
2022-11-04T22:58:26.981Z,99736.72
2022-11-04T23:00:56.700Z,99738.09
2022-11-04T23:03:24.468Z,99740.06
2022-11-04T23:05:54.927Z,99733.16
2022-11-04T23:08:23.990Z,99737.44
2022-11-04T23:11:09.294Z,99739.72
2022-11-04T23:13:54.224Z,99742.97
2022-11-04T23:16:40.895Z,99744.78
2022-11-04T23:19:08.757Z,99746.88
2022-11-04T23:21:53.958Z,99756.63
2022-11-04T23:24:40.660Z,99756.00
2022-11-04T23:27:08.308Z,99752.28
2022-11-04T23:29:58.788Z,99761.84
2022-11-04T23:32:27.604Z,99764.03
2022-11-04T23:35:13.155Z,99765.00
2022-11-04T23:37:40.971Z,99774.50
2022-11-04T23:40:10.769Z,99776.63
2022-11-04T23:42:38.441Z,99777.28
2022-11-04T23:45:24.658Z,99778.41
2022-11-04T23:48:14.137Z,99770.97
2022-11-04T23:50:59.374Z,99768.41
2022-11-04T23:53:44.791Z,99770.44
2022-11-04T23:56:31.168Z,99771.50
2022-11-04T23:59:16.587Z,99763.63
